Time;durP1;ratioP1;P1;durP2;ratioP2;P2;SDS_P1;SDS_P2;PMS_P1;PMS_P2;Temp;Humidity;BMP_temperature;BMP_pressure;BME280_temperature;BME280_humidity;BME280_pressure;Samples;Min_cycle;Max_cycle;Signal;HPM_P1;HPM_P2
2020/12/02 00:00:00;;;;;;;17.17;11.53;;;;;;;1.52;96.96;100985.25;1697500;83;21196;-77
2020/12/02 00:02:42;;;;;;;15.37;10.93;;;;;;;1.49;97.01;100992.79;1681683;83;21157;-76
2020/12/02 00:05:12;;;;;;;15.03;11.40;;;;;;;1.46;96.99;100988.44;1684838;83;21225;-76
2020/12/02 00:07:41;;;;;;;14.05;10.18;;;;;;;1.43;96.93;100988.73;1678286;84;21157;-80
2020/12/02 00:10:11;;;;;;;14.00;9.90;;;;;;;1.43;97.11;100989.59;1678564;84;21555;-80
2020/12/02 00:12:39;;;;;;;13.13;10.57;;;;;;;1.40;97.09;100996.72;1680427;83;21158;-78
2020/12/02 00:15:07;;;;;;;17.17;10.50;;;;;;;1.41;97.31;100992.52;1685997;84;21051;-80
2020/12/02 00:17:35;;;;;;;14.10;9.87;;;;;;;1.41;97.44;100997.61;1686064;83;21365;-80
2020/12/02 00:20:06;;;;;;;14.43;10.60;;;;;;;1.43;97.65;100993.42;1685170;82;21163;-80
2020/12/02 00:22:36;;;;;;;14.17;10.50;;;;;;;1.45;97.63;100990.53;1690791;83;21078;-80
2020/12/02 00:25:05;;;;;;;15.57;9.77;;;;;;;1.42;97.32;100995.93;1685817;83;21083;-80
2020/12/02 00:27:34;;;;;;;15.03;10.90;;;;;;;1.39;97.65;100987.34;1696390;83;21081;-79
2020/12/02 00:30:07;;;;;;;12.67;10.07;;;;;;;1.43;97.68;100993.42;1680672;83;22109;-78
2020/12/02 00:32:39;;;;;;;13.60;10.27;;;;;;;1.45;97.38;100997.32;1680852;83;21138;-75
2020/12/02 00:35:09;;;;;;;15.50;10.83;;;;;;;1.46;97.28;100996.09;1691686;83;21120;-75
2020/12/02 00:37:40;;;;;;;13.43;10.20;;;;;;;1.42;97.18;100997.20;1681572;83;21145;-75
2020/12/02 00:40:09;;;;;;;13.20;7.63;;;;;;;1.40;97.19;100995.85;1689404;83;21138;-75
2020/12/02 00:42:36;;;;;;;14.30;9.57;;;;;;;1.34;96.90;100998.17;1709499;83;21411;-74
2020/12/02 00:45:07;;;;;;;13.37;9.57;;;;;;;1.27;97.05;100997.48;1691219;83;21095;-76
2020/12/02 00:47:34;;;;;;;13.33;9.73;;;;;;;1.31;97.36;100987.89;1659000;83;21043;-76
2020/12/02 00:50:04;;;;;;;16.50;11.07;;;;;;;1.31;97.15;100998.95;1709459;83;21145;-76
2020/12/02 00:52:31;;;;;;;13.43;9.20;;;;;;;1.32;97.42;100995.98;1705155;83;21196;-75
2020/12/02 00:54:59;;;;;;;15.97;10.97;;;;;;;1.33;97.27;100993.48;1700691;83;21646;-76
2020/12/02 00:57:31;;;;;;;16.00;10.90;;;;;;;1.30;97.07;100986.99;1676783;83;21194;-75
2020/12/02 00:59:59;;;;;;;14.43;9.80;;;;;;;1.27;96.96;100997.07;1685392;83;21249;-75
2020/12/02 01:02:38;;;;;;;13.17;10.63;;;;;;;1.26;97.13;100991.52;1691631;83;21048;-76
2020/12/02 01:05:13;;;;;;;13.20;9.77;;;;;;;1.27;97.31;100992.38;1690797;83;21127;-75
2020/12/02 01:07:42;;;;;;;15.47;11.30;;;;;;;1.26;97.48;100991.52;1685759;83;21171;-78
2020/12/02 01:10:12;;;;;;;15.53;11.03;;;;;;;1.29;97.65;100990.36;1687823;83;21147;-77
2020/12/02 01:12:43;;;;;;;14.07;9.73;;;;;;;1.30;97.68;100992.09;1671686;83;21142;-78
2020/12/02 01:15:13;;;;;;;15.17;10.83;;;;;;;1.30;97.83;100982.30;1671814;83;21597;-76
2020/12/02 01:17:41;;;;;;;14.50;11.37;;;;;;;1.32;97.72;100989.62;1664645;84;21141;-76
2020/12/02 01:20:09;;;;;;;16.87;11.87;;;;;;;1.33;97.65;100991.34;1658912;84;21370;-77
2020/12/02 01:22:40;;;;;;;16.67;11.10;;;;;;;1.35;97.69;100987.19;1689364;83;21154;-77
2020/12/02 01:25:19;;;;;;;16.20;11.15;;;;;;;1.35;97.57;100982.95;1699472;83;21129;-76
2020/12/02 01:27:52;;;;;;;15.43;10.73;;;;;;;1.38;97.47;100983.06;1691205;83;21173;-76
2020/12/02 01:30:20;;;;;;;15.80;10.90;;;;;;;1.39;97.31;100982.66;1693199;83;21170;-74
2020/12/02 01:32:48;;;;;;;16.20;11.60;;;;;;;1.40;97.28;100980.56;1704153;83;21636;-76
2020/12/02 01:35:20;;;;;;;17.93;11.07;;;;;;;1.40;97.12;100981.42;1693064;83;21108;-75
2020/12/02 01:37:55;;;;;;;13.53;11.17;;;;;;;1.40;96.97;100975.05;1671143;83;21140;-75
2020/12/02 01:40:28;;;;;;;15.57;11.80;;;;;;;1.40;96.81;100975.45;1684433;83;21589;-75
2020/12/02 01:43:05;;;;;;;15.23;11.27;;;;;;;1.36;96.94;100972.34;1674256;83;21118;-76
2020/12/02 01:45:39;;;;;;;15.07;10.40;;;;;;;1.35;96.37;100974.03;1673684;84;21681;-76
2020/12/02 01:48:42;;;;;;;15.90;11.83;;;;;;;1.31;96.43;100968.36;1683674;83;21138;-76
2020/12/02 01:51:43;;;;;;;14.00;10.03;;;;;;;1.27;96.47;100969.44;1685469;83;21133;-76
2020/12/02 01:54:15;;;;;;;14.63;10.15;;;;;;;1.27;96.58;100965.20;1666706;83;23102;-75
2020/12/02 01:56:54;;;;;;;15.33;9.73;;;;;;;1.31;96.73;100963.67;1687306;83;21064;-76
2020/12/02 01:59:33;;;;;;;14.53;9.53;;;;;;;1.33;96.64;100955.24;1685061;83;21810;-76
2020/12/02 02:02:12;;;;;;;13.80;9.47;;;;;;;1.32;95.98;100953.52;1677363;83;21268;-75
2020/12/02 02:04:53;;;;;;;16.30;10.67;;;;;;;1.23;95.82;100957.41;1689353;83;21154;-75
2020/12/02 02:07:24;;;;;;;13.67;9.43;;;;;;;1.19;96.07;100956.42;1708508;81;21106;-75
2020/12/02 02:09:57;;;;;;;13.67;10.03;;;;;;;1.20;95.99;100950.91;1691178;84;21076;-75
2020/12/02 02:12:40;;;;;;;11.97;7.47;;;;;;;1.11;95.69;100959.97;1686438;83;21212;-75
2020/12/02 02:15:42;;;;;;;16.77;11.20;;;;;;;1.07;96.17;100947.89;1705887;82;21070;-76
2020/12/02 02:18:20;;;;;;;14.80;10.70;;;;;;;1.05;96.37;100953.77;1626649;85;21137;-75
2020/12/02 02:20:56;;;;;;;15.50;11.23;;;;;;;1.08;96.48;100956.02;1604105;85;21216;-75
2020/12/02 02:23:25;;;;;;;15.93;10.30;;;;;;;1.10;96.41;100954.80;1653142;84;21147;-75
2020/12/02 02:39:58;;;;;;;16.93;10.10;;;;;;;0.99;96.04;100952.25;1786455;76;24782;-75
2020/12/02 02:42:35;;;;;;;;;;;;;;;0.92;95.99;100956.24;1767918;80;21163;-75
2020/12/02 02:55:42;;;;;;;13.93;9.73;;;;;;;0.85;96.33;100960.23;1857145;75;25805;-75
2020/12/02 02:58:09;;;;;;;13.53;8.67;;;;;;;0.81;96.35;100960.89;1820479;77;21504;-75
2020/12/02 03:00:46;;;;;;;14.73;10.10;;;;;;;0.83;96.05;100968.20;1828202;77;25197;-74
2020/12/02 03:03:15;;;;;;;16.20;9.77;;;;;;;0.73;95.93;100965.25;1799106;78;21451;-75
2020/12/02 03:05:42;;;;;;;16.10;10.37;;;;;;;0.69;96.30;100968.94;1795155;77;21372;-75
2020/12/02 03:08:11;;;;;;;13.97;9.83;;;;;;;0.68;96.11;100972.27;1744425;80;21131;-76
2020/12/02 03:10:42;;;;;;;12.55;7.33;;;;;;;0.66;95.87;100968.81;1709619;82;21117;-75
2020/12/02 03:13:21;;;;;;;16.67;11.55;;;;;;;0.64;96.25;100969.55;1745116;81;21133;-76
2020/12/02 03:15:49;;;;;;;17.00;11.37;;;;;;;0.62;96.22;100966.97;1734980;80;21145;-76
2020/12/02 03:18:17;;;;;;;18.77;11.87;;;;;;;0.59;96.15;100970.66;1694447;82;21814;-75
2020/12/02 03:20:49;;;;;;;19.90;12.83;;;;;;;0.59;96.16;100964.30;1738815;80;21509;-76
2020/12/02 03:23:17;;;;;;;21.30;13.03;;;;;;;0.64;96.11;100964.47;1703707;82;21565;-76
2020/12/02 03:25:48;;;;;;;20.10;12.57;;;;;;;0.66;95.78;100962.45;1730598;81;21185;-76
2020/12/02 03:28:16;;;;;;;23.43;12.73;;;;;;;0.64;95.52;100963.19;1733253;82;21715;-76
2020/12/02 03:30:43;;;;;;;20.20;13.00;;;;;;;0.62;95.25;100962.25;1756881;80;22646;-75
2020/12/02 03:33:13;;;;;;;22.03;13.57;;;;;;;0.55;94.95;100965.36;1746078;81;21176;-76
2020/12/02 03:35:41;;;;;;;23.42;13.75;;;;;;;0.49;94.97;100968.92;1748243;80;21169;-76
2020/12/02 03:38:09;;;;;;;21.17;13.13;;;;;;;0.50;95.11;100960.50;1745731;80;21176;-75
2020/12/02 03:40:39;;;;;;;22.97;13.93;;;;;;;0.56;95.15;100971.80;1750937;81;21489;-77
2020/12/02 03:43:07;;;;;;;;;;;;;;;0.58;94.77;100966.76;1757092;80;21679;-75
2020/12/02 03:45:39;;;;;;;22.97;13.17;;;;;;;0.61;94.57;100965.61;1735470;80;20222;-76
2020/12/02 03:48:09;;;;;;;25.53;13.90;;;;;;;0.62;94.17;100966.97;1725067;80;21199;-76
2020/12/02 03:50:39;;;;;;;22.87;13.47;;;;;;;0.60;93.85;100965.16;1750018;80;21052;-75
2020/12/02 03:53:07;;;;;;;17.55;9.33;;;;;;;0.53;93.21;100960.22;1755048;80;21165;-76
2020/12/02 03:55:34;;;;;;;26.10;14.07;;;;;;;0.44;93.54;100961.98;1762825;80;21380;-76
2020/12/02 03:58:02;;;;;;;22.07;12.90;;;;;;;0.40;93.81;100956.31;1713412;81;21544;-76
2020/12/02 04:00:30;;;;;;;20.43;13.30;;;;;;;0.38;93.55;100964.68;1745349;80;21125;-75
2020/12/02 04:02:57;;;;;;;21.73;14.43;;;;;;;0.32;93.69;100966.56;1718697;82;21160;-76
2020/12/02 04:05:25;;;;;;;24.33;13.93;;;;;;;0.31;93.63;100967.38;1775608;79;21070;-75
2020/12/02 04:07:53;;;;;;;26.90;14.93;;;;;;;0.31;93.89;100967.78;1778957;79;21431;-75
2020/12/02 04:10:20;;;;;;;22.80;14.03;;;;;;;0.32;93.82;100966.97;1767691;79;21085;-75
2020/12/02 04:12:48;;;;;;;23.53;13.43;;;;;;;0.33;93.66;100973.41;1771898;79;21110;-76
2020/12/02 04:15:18;;;;;;;23.70;13.87;;;;;;;0.37;93.63;100975.67;1745249;80;21053;-74
2020/12/02 04:17:47;;;;;;;23.97;15.87;;;;;;;0.38;93.42;100973.59;1751973;79;21050;-75
2020/12/02 04:20:20;;;;;;;23.27;14.17;;;;;;;0.38;93.38;100971.91;1759161;79;21365;-75
2020/12/02 04:22:50;;;;;;;20.40;12.77;;;;;;;0.40;93.20;100975.80;1759229;79;21684;-75
2020/12/02 04:25:18;;;;;;;24.43;15.67;;;;;;;0.38;92.77;100978.68;1768445;79;21163;-75
2020/12/02 04:27:46;;;;;;;20.90;13.47;;;;;;;0.35;92.83;100976.01;1737169;82;21112;-75
2020/12/02 04:30:13;;;;;;;27.47;15.33;;;;;;;0.37;92.81;100974.00;1769055;79;21561;-76
2020/12/02 04:32:41;;;;;;;25.93;15.30;;;;;;;0.37;92.16;100980.77;1736351;80;21465;-75
2020/12/02 04:35:09;;;;;;;26.17;15.73;;;;;;;0.34;92.18;100975.55;1766142;79;21121;-76
2020/12/02 04:37:37;;;;;;;28.10;14.67;;;;;;;0.30;92.17;100974.55;1745505;80;21178;-77
2020/12/02 04:40:08;;;;;;;23.83;14.23;;;;;;;0.30;92.32;100973.28;1780642;79;21082;-76
2020/12/02 04:42:40;;;;;;;28.80;15.40;;;;;;;0.31;91.89;100969.05;1781500;79;21047;-76
2020/12/02 04:45:08;;;;;;;23.77;13.27;;;;;;;0.26;92.02;100971.39;1773959;79;21359;-76
2020/12/02 04:47:38;;;;;;;24.57;14.70;;;;;;;0.24;91.90;100969.20;1677007;83;21112;-75
2020/12/02 04:50:17;;;;;;;28.60;14.73;;;;;;;0.24;92.26;100973.02;1758370;79;21581;-76
2020/12/02 04:53:16;;;;;;;21.50;13.60;;;;;;;0.29;92.64;100977.02;1747082;79;21184;-75
2020/12/02 04:55:46;;;;;;;24.70;14.40;;;;;;;0.30;92.54;100972.42;1769473;79;21122;-75
2020/12/02 04:58:32;;;;;;;22.20;13.67;;;;;;;0.30;92.77;100970.73;1774142;79;22410;-75
2020/12/02 05:01:30;;;;;;;24.67;14.43;;;;;;;0.32;92.72;100965.28;1797200;78;21146;-75
2020/12/02 05:04:09;;;;;;;19.33;11.33;;;;;;;0.33;92.96;100968.73;1787369;78;21154;-75
2020/12/02 05:06:42;;;;;;;23.23;12.57;;;;;;;0.36;92.89;100972.27;1768012;78;21074;-75
2020/12/02 05:09:21;;;;;;;19.73;11.83;;;;;;;0.37;93.23;100971.45;1785834;78;21546;-75
2020/12/02 05:12:05;;;;;;;17.67;11.57;;;;;;;0.42;93.32;100964.86;1774143;78;21791;-76
2020/12/02 05:14:42;;;;;;;22.33;12.73;;;;;;;0.45;93.22;100964.98;1787927;78;21523;-74
2020/12/02 05:17:27;;;;;;;21.43;11.87;;;;;;;0.44;92.73;100968.34;1785767;78;21130;-75
2020/12/02 05:20:17;;;;;;;17.13;11.27;;;;;;;0.36;92.82;100969.72;1800436;79;21051;-74
2020/12/02 05:22:48;;;;;;;17.17;11.08;;;;;;;0.33;92.93;100970.00;1768309;79;21134;-76
2020/12/02 05:25:29;;;;;;;18.75;11.28;;;;;;;0.23;92.90;100978.93;1779053;79;21460;-75
2020/12/02 05:28:14;;;;;;;16.20;10.90;;;;;;;0.20;93.49;100980.94;1781105;78;21150;-76
2020/12/02 05:30:42;;;;;;;17.47;10.13;;;;;;;0.23;93.66;100982.75;1782930;78;21094;-76
2020/12/02 05:33:17;;;;;;;17.57;10.77;;;;;;;0.20;93.63;100982.20;1776399;79;21118;-75
2020/12/02 05:35:57;;;;;;;15.00;9.80;;;;;;;0.21;93.61;100977.58;1778066;78;21168;-75
2020/12/02 05:38:30;;;;;;;15.67;10.13;;;;;;;0.21;93.69;100975.03;1788142;78;21369;-76
2020/12/02 05:40:58;;;;;;;16.13;10.70;;;;;;;0.18;93.48;100976.17;1774117;78;21193;-76
2020/12/02 05:43:48;;;;;;;14.53;9.80;;;;;;;0.19;93.43;100979.17;1774722;78;21122;-76
2020/12/02 05:46:28;;;;;;;14.33;9.55;;;;;;;0.18;93.29;100985.48;1743867;79;21191;-75
2020/12/02 05:49:02;;;;;;;14.47;8.80;;;;;;;0.13;93.36;100985.68;1794869;79;21191;-76
2020/12/02 05:51:30;;;;;;;18.03;10.27;;;;;;;0.10;93.16;100991.91;1800095;78;21369;-74
2020/12/02 05:54:14;;;;;;;17.77;10.77;;;;;;;0.03;93.18;100985.69;1788224;78;21201;-75
2020/12/02 05:56:45;;;;;;;14.27;9.40;;;;;;;0.02;93.63;100985.23;1792679;78;21055;-74
2020/12/02 05:59:13;;;;;;;14.00;8.70;;;;;;;0.04;93.88;100986.59;1787943;78;21121;-74
2020/12/02 06:01:40;;;;;;;13.57;9.37;;;;;;;0.09;94.22;100990.17;1673544;81;21120;-74
2020/12/02 06:04:11;;;;;;;12.87;8.43;;;;;;;0.11;94.03;100994.94;1775911;80;21363;-75
2020/12/02 06:06:39;;;;;;;;;;;;;;;0.12;93.65;100994.13;1736925;78;21163;-73
2020/12/02 06:09:06;;;;;;;16.97;9.13;;;;;;;0.03;93.64;101003.50;1766304;78;20285;-73
2020/12/02 06:11:36;;;;;;;12.70;9.03;;;;;;;0.03;94.26;101001.36;1768057;78;21172;-75
2020/12/02 06:14:18;;;;;;;15.87;9.33;;;;;;;0.05;94.29;100998.08;1771690;78;21037;-75
2020/12/02 06:16:47;;;;;;;15.20;9.57;;;;;;;0.05;94.52;101002.31;1769475;78;22227;-76
2020/12/02 06:19:38;;;;;;;13.97;9.20;;;;;;;0.11;94.75;101006.39;1767085;78;21076;-74
2020/12/02 06:22:07;;;;;;;15.30;9.97;;;;;;;0.14;94.61;101009.07;1702145;82;21179;-77
2020/12/02 06:24:47;;;;;;;9.70;6.83;;;;;;;0.18;94.77;101004.57;1683784;83;21122;-76
2020/12/02 06:27:32;;;;;;;12.37;8.37;;;;;;;0.23;94.83;101001.42;1690015;83;21114;-75
2020/12/02 06:30:10;;;;;;;14.90;9.80;;;;;;;0.23;94.47;101010.33;1669998;83;21814;-76
2020/12/02 06:32:38;;;;;;;12.63;8.70;;;;;;;0.28;94.58;101006.70;1694471;83;21285;-76
2020/12/02 06:35:18;;;;;;;19.03;12.67;;;;;;;0.33;94.74;101006.50;1711324;83;21105;-76
2020/12/02 06:38:28;;;;;;;16.97;12.27;;;;;;;0.34;94.26;101008.23;1710641;83;21059;-76
2020/12/02 06:41:04;;;;;;;18.65;13.45;;;;;;;0.36;94.56;101009.55;1679316;83;21577;-76
2020/12/02 06:43:58;;;;;;;20.80;12.73;;;;;;;0.40;94.45;101003.39;1682629;83;21213;-76
2020/12/02 06:47:10;;;;;;;20.53;13.57;;;;;;;0.43;94.53;101001.39;1691836;83;21188;-76
2020/12/02 06:49:38;;;;;;;18.80;13.70;;;;;;;0.46;94.46;101006.20;1614995;87;21187;-77
2020/12/02 06:52:11;;;;;;;23.80;14.78;;;;;;;0.38;93.59;101008.81;1737930;80;21204;-77
2020/12/02 06:54:40;;;;;;;19.40;13.53;;;;;;;0.30;93.62;101011.87;1779127;80;21120;-77
2020/12/02 06:57:24;;;;;;;19.70;12.90;;;;;;;0.29;94.22;101007.56;1763209;80;21498;-77
2020/12/02 06:59:56;;;;;;;21.77;16.10;;;;;;;0.36;94.53;101007.00;1774299;80;21077;-77
2020/12/02 07:02:53;;;;;;;25.17;16.70;;;;;;;0.42;94.34;101010.67;1767068;80;21108;-76
2020/12/02 07:05:38;;;;;;;26.93;17.57;;;;;;;0.46;94.10;101004.93;1765285;80;21561;-77
2020/12/02 07:08:17;;;;;;;27.27;19.73;;;;;;;0.40;93.52;101003.39;1768497;80;21092;-77
2020/12/02 07:11:12;;;;;;;28.57;19.93;;;;;;;0.36;93.86;101010.45;1742420;82;21362;-77
2020/12/02 07:13:43;;;;;;;24.20;16.07;;;;;;;0.39;94.03;101008.03;1752212;80;21560;-73
2020/12/02 07:16:19;;;;;;;27.93;17.80;;;;;;;0.41;92.91;101009.35;1757467;80;21541;-76
2020/12/02 07:18:50;;;;;;;27.10;19.03;;;;;;;0.36;93.18;101007.90;1758048;79;21108;-76
2020/12/02 07:21:44;;;;;;;26.73;17.55;;;;;;;0.34;93.46;101008.23;1757969;80;21119;-75
2020/12/02 07:24:23;;;;;;;27.03;17.60;;;;;;;0.35;93.60;101009.09;1736355;80;21720;-76
2020/12/02 07:26:56;;;;;;;27.93;19.33;;;;;;;0.30;92.83;101010.59;1725954;80;21128;-76
2020/12/02 07:29:25;;;;;;;28.20;19.37;;;;;;;0.19;93.30;101006.30;1725194;81;21220;-75
2020/12/02 07:32:01;;;;;;;24.23;16.83;;;;;;;0.14;93.54;101016.70;1757474;80;21216;-76
2020/12/02 07:34:29;;;;;;;30.53;17.83;;;;;;;0.12;93.86;101006.84;1725562;81;21175;-76
2020/12/02 07:37:20;;;;;;;26.83;18.97;;;;;;;0.18;94.28;101009.25;1758672;80;21540;-76
2020/12/02 07:42:41;;;;;;;27.30;15.40;;;;;;;0.29;94.02;101013.52;1826212;77;25945;-76
2020/12/02 07:45:20;;;;;;;28.07;17.93;;;;;;;0.25;93.53;101017.15;1804508;77;21087;-75
2020/12/02 07:48:04;;;;;;;28.23;19.27;;;;;;;0.19;93.06;101017.34;1755769;81;21816;-76
2020/12/02 07:53:54;;;;;;;24.73;13.63;;;;;;;0.30;94.21;101016.95;1675211;84;21217;-74
2020/12/02 07:56:31;;;;;;;25.07;17.30;;;;;;;0.40;94.07;101021.22;1674844;84;21214;-75
2020/12/02 07:59:17;;;;;;;50.57;33.33;;;;;;;0.48;93.73;101022.80;1669057;84;21192;-77
2020/12/02 08:01:52;;;;;;;23.10;14.43;;;;;;;0.57;93.77;101019.77;1684351;84;21377;-76
2020/12/02 08:04:26;;;;;;;23.20;14.30;;;;;;;0.60;92.91;101022.04;1673911;84;21090;-75
2020/12/02 08:07:06;;;;;;;21.87;14.33;;;;;;;0.56;92.28;101024.41;1677586;84;21181;-75
2020/12/02 08:09:38;;;;;;;23.83;15.88;;;;;;;0.45;92.38;101023.53;1676504;84;21145;-72
2020/12/02 08:12:17;;;;;;;26.77;16.47;;;;;;;0.43;92.90;101016.66;1672126;84;21193;-74
2020/12/02 08:15:07;;;;;;;20.77;13.20;;;;;;;0.48;93.31;101016.84;1682541;84;21282;-75
2020/12/02 08:17:35;;;;;;;21.00;13.70;;;;;;;0.57;93.07;101014.27;1650561;84;21128;-75
2020/12/02 08:20:30;;;;;;;25.27;16.83;;;;;;;0.54;92.63;101020.92;1680821;84;21091;-75
2020/12/02 08:22:57;;;;;;;25.50;15.70;;;;;;;0.52;93.00;101015.75;1576547;89;21264;-76
2020/12/02 08:25:36;;;;;;;21.10;14.93;;;;;;;0.59;93.30;101012.67;1657200;83;21198;-75
2020/12/02 08:28:10;;;;;;;19.47;12.77;;;;;;;0.67;92.60;101006.61;1663208;85;21223;-75
2020/12/02 08:30:38;;;;;;;21.80;14.60;;;;;;;0.58;91.64;101016.41;1675678;84;21171;-76
2020/12/02 08:33:12;;;;;;;20.57;14.77;;;;;;;0.41;92.36;101011.90;1679389;84;21178;-77
2020/12/02 08:35:49;;;;;;;24.10;15.17;;;;;;;0.31;92.59;101004.69;1672097;84;21186;-76
2020/12/02 08:38:32;;;;;;;21.53;13.70;;;;;;;0.33;93.55;101005.63;1698466;84;21112;-79
2020/12/02 08:41:02;;;;;;;24.67;16.57;;;;;;;0.37;93.42;101004.54;1669145;84;21567;-75
2020/12/02 08:43:40;;;;;;;21.63;14.20;;;;;;;0.31;93.25;101002.14;1642454;86;21166;-74
2020/12/02 08:46:28;;;;;;;24.23;14.53;;;;;;;0.26;93.76;101001.06;1659425;85;21452;-75
2020/12/02 08:49:00;;;;;;;20.27;13.67;;;;;;;0.22;94.08;100997.11;1661720;85;21180;-74
2020/12/02 08:51:27;;;;;;;23.67;15.17;;;;;;;0.16;94.35;100994.72;1658516;85;21604;-75
2020/12/02 08:53:57;;;;;;;20.57;14.17;;;;;;;0.11;94.87;100994.53;1651659;85;21379;-74
2020/12/02 08:56:56;;;;;;;21.90;14.93;;;;;;;0.17;95.03;100992.25;1628524;85;21226;-73
2020/12/02 08:59:26;;;;;;;20.87;14.77;;;;;;;0.26;95.21;100992.16;1599635;87;21156;-79
2020/12/02 09:02:10;;;;;;;20.50;13.68;;;;;;;0.37;95.57;100991.81;1621522;87;28610;-75
2020/12/02 09:04:38;;;;;;;18.77;11.63;;;;;;;0.47;95.07;100990.52;1597930;88;21128;-78
2020/12/02 09:07:06;;;;;;;22.43;12.73;;;;;;;0.45;93.68;100985.75;1580373;88;21827;-74
2020/12/02 09:09:33;;;;;;;22.50;14.87;;;;;;;0.27;93.79;100990.97;1597483;88;21201;-74
2020/12/02 09:12:01;;;;;;;23.77;14.00;;;;;;;0.05;95.59;100979.41;1611387;87;21165;-74
2020/12/02 09:14:29;;;;;;;21.50;14.23;;;;;;;-0.18;96.75;100993.27;1598455;87;21164;-74
2020/12/02 09:16:57;;;;;;;22.53;15.77;;;;;;;-0.29;97.49;100984.32;1614220;87;21130;-74
2020/12/02 09:19:27;;;;;;;24.27;16.07;;;;;;;-0.36;98.24;100986.09;1600176;87;21202;-75
2020/12/02 09:22:01;;;;;;;20.70;13.47;;;;;;;-0.34;98.41;100983.23;1674572;83;21639;-74
2020/12/02 09:24:29;;;;;;;21.47;13.37;;;;;;;-0.32;98.82;100986.32;1679634;83;21137;-74
2020/12/02 09:26:57;;;;;;;20.70;13.40;;;;;;;-0.28;99.18;100981.83;1682158;84;21191;-75
2020/12/02 09:29:28;;;;;;;;;;;;;;;-0.31;98.76;100977.02;1682501;84;21041;-74
2020/12/02 09:31:56;;;;;;;20.30;11.90;;;;;;;-0.33;99.11;100982.05;1683276;84;21825;-75
2020/12/02 09:34:23;;;;;;;23.17;13.47;;;;;;;-0.35;98.52;100981.09;1677026;84;21144;-75
2020/12/02 09:36:54;;;;;;;17.65;10.65;;;;;;;-0.35;98.47;100982.37;1656468;84;21133;-74
2020/12/02 09:39:22;;;;;;;20.77;13.03;;;;;;;-0.38;98.71;100978.42;1696366;84;21188;-74
2020/12/02 09:42:28;;;;;;;18.17;12.03;;;;;;;-0.40;98.69;100977.88;1673426;84;21212;-74
2020/12/02 09:45:25;;;;;;;14.20;10.30;;;;;;;-0.40;97.59;100974.06;1685290;84;21388;-75
2020/12/02 09:47:52;;;;;;;27.07;18.93;;;;;;;-0.36;97.12;100970.84;1663375;84;21156;-72
2020/12/02 09:50:20;;;;;;;18.83;13.10;;;;;;;-0.25;97.58;100968.39;1657921;84;21148;-73
2020/12/02 09:52:49;;;;;;;19.03;12.03;;;;;;;-0.13;96.70;100967.66;1668687;84;21176;-74
2020/12/02 09:55:23;;;;;;;22.90;15.87;;;;;;;-0.06;96.81;100972.60;1652250;85;21571;-74
2020/12/02 09:57:52;;;;;;;21.83;13.53;;;;;;;-0.03;96.76;100970.19;1653585;84;21619;-73
2020/12/02 10:00:24;;;;;;;18.23;12.63;;;;;;;0.04;96.11;100970.05;1665276;85;21215;-74
2020/12/02 10:03:24;;;;;;;19.30;12.33;;;;;;;0.08;94.98;100969.37;1660146;85;21168;-73
2020/12/02 10:06:25;;;;;;;21.27;14.67;;;;;;;0.02;94.67;100972.52;1662870;84;21148;-74
2020/12/02 10:09:19;;;;;;;22.13;13.95;;;;;;;-0.07;94.98;100972.11;1657093;84;21076;-74
2020/12/02 10:12:26;;;;;;;19.00;12.00;;;;;;;-0.04;95.75;100967.16;1664421;85;22360;-73
2020/12/02 10:15:26;;;;;;;17.97;11.03;;;;;;;0.04;95.59;100968.38;1662104;84;21182;-74
2020/12/02 10:18:15;;;;;;;22.57;12.80;;;;;;;0.07;94.54;100971.05;1640143;84;21184;-75
2020/12/02 10:20:48;;;;;;;20.30;12.37;;;;;;;-0.03;94.45;100967.65;1659167;84;21414;-73
2020/12/02 10:23:59;;;;;;;22.57;12.17;;;;;;;-0.14;94.68;100979.87;1654465;84;21222;-78
2020/12/02 10:26:57;;;;;;;20.50;12.23;;;;;;;-0.21;94.84;100977.88;1662693;84;21825;-80
2020/12/02 10:30:18;;;;;;;14.63;9.97;;;;;;;-0.18;96.25;100975.88;1821654;76;24424;-78
2020/12/02 10:33:26;;;;;;;19.73;11.83;;;;;;;-0.20;96.37;100966.89;1730180;81;21235;-78
2020/12/02 10:35:54;;;;;;;22.80;14.60;;;;;;;-0.22;94.72;100974.88;1701248;83;22105;-77
2020/12/02 10:38:44;;;;;;;22.27;14.33;;;;;;;-0.25;96.43;100970.52;1697584;82;21100;-77
2020/12/02 10:41:45;;;;;;;20.13;13.10;;;;;;;-0.22;96.82;100974.02;1712889;83;21144;-77
2020/12/02 10:44:34;;;;;;;22.17;14.20;;;;;;;-0.16;97.05;100967.52;1643721;84;21224;-78
2020/12/02 10:47:31;;;;;;;21.17;14.77;;;;;;;-0.14;97.30;100966.30;1692154;83;21115;-77
2020/12/02 10:49:59;;;;;;;24.83;15.20;;;;;;;-0.17;97.19;100968.30;1686203;83;21269;-76
2020/12/02 10:52:27;;;;;;;26.47;17.77;;;;;;;-0.22;98.47;100970.20;1709992;83;21512;-78
2020/12/02 10:54:55;;;;;;;22.73;14.60;;;;;;;-0.22;98.24;100972.75;1703399;82;21386;-77
2020/12/02 10:57:24;;;;;;;26.03;17.87;;;;;;;-0.19;98.79;100971.61;1703893;82;21141;-77
2020/12/02 10:59:56;;;;;;;23.43;14.23;;;;;;;-0.13;98.51;100967.66;1729146;82;21129;-77
2020/12/02 11:02:30;;;;;;;23.67;15.63;;;;;;;-0.14;98.65;100964.62;1717785;83;21308;-76
2020/12/02 11:04:58;;;;;;;24.07;13.67;;;;;;;-0.16;98.84;100971.75;1726226;82;21173;-77
2020/12/02 11:07:48;;;;;;;21.93;15.27;;;;;;;-0.21;99.55;100971.52;1702437;83;21269;-77
2020/12/02 11:10:41;;;;;;;27.47;17.37;;;;;;;-0.18;99.75;100972.93;1698225;83;21211;-77
2020/12/02 11:13:17;;;;;;;19.23;12.70;;;;;;;-0.10;99.98;100968.16;1696859;83;21205;-75
2020/12/02 11:15:59;;;;;;;27.97;17.60;;;;;;;0.04;99.71;100963.69;1715230;83;21818;-75
2020/12/02 11:19:04;;;;;;;22.67;15.57;;;;;;;0.05;99.08;100961.61;1699467;83;21132;-75
2020/12/02 11:21:57;;;;;;;25.50;15.60;;;;;;;-0.01;99.05;100957.98;1680186;84;21432;-80
2020/12/02 11:25:13;;;;;;;25.23;16.33;;;;;;;-0.11;99.36;100953.31;1630818;87;21187;-76
2020/12/02 11:27:44;;;;;;;26.87;17.60;;;;;;;-0.13;100.00;100949.86;1613264;87;21107;-76
2020/12/02 11:30:19;;;;;;;25.53;16.97;;;;;;;-0.06;100.00;100950.98;1662504;86;21394;-75
2020/12/02 11:36:35;;;;;;;28.17;21.00;;;;;;;0.18;100.00;100958.36;1666651;84;22082;-74
2020/12/02 11:39:35;;;;;;;27.27;18.00;;;;;;;0.47;100.00;100945.97;1824197;77;23970;-77
2020/12/02 11:42:30;;;;;;;25.83;17.50;;;;;;;0.55;99.85;100951.36;1786687;80;21152;-82
2020/12/02 11:45:41;;;;;;;26.77;18.60;;;;;;;0.55;98.93;100946.27;1774929;79;21270;-78
2020/12/02 11:49:02;;;;;;;27.87;18.87;;;;;;;0.45;98.78;100949.70;1729717;82;21185;-76
2020/12/02 11:52:18;;;;;;;26.90;19.90;;;;;;;0.45;99.48;100949.70;1730573;81;21197;-79
2020/12/02 11:54:48;;;;;;;25.00;17.33;;;;;;;0.44;98.65;100952.20;1748948;80;21107;-77
2020/12/02 11:57:35;;;;;;;26.83;17.60;;;;;;;0.23;98.99;100956.03;1721147;81;21442;-78
2020/12/02 12:00:03;;;;;;;24.47;17.43;;;;;;;0.11;99.15;100951.28;1753905;80;21717;-76
2020/12/02 12:03:07;;;;;;;28.50;18.20;;;;;;;0.11;100.00;100953.83;1764923;80;20990;-77
2020/12/02 12:05:41;;;;;;;29.17;18.83;;;;;;;0.20;100.00;100953.35;1729410;80;21133;-77
2020/12/02 12:08:20;;;;;;;28.50;19.03;;;;;;;0.21;99.53;100949.99;1721918;82;21475;-78
2020/12/02 12:10:58;;;;;;;28.67;19.13;;;;;;;0.15;100.00;100950.59;1753099;80;21048;-79
2020/12/02 12:13:38;;;;;;;32.17;19.50;;;;;;;0.13;100.00;100942.05;1762757;78;21542;-78
2020/12/02 12:16:45;;;;;;;26.93;18.83;;;;;;;0.12;100.00;100942.84;1749144;80;21115;-78
2020/12/02 12:19:27;;;;;;;27.83;17.27;;;;;;;0.10;100.00;100940.65;1742639;80;21159;-73
2020/12/02 12:22:36;;;;;;;25.23;17.33;;;;;;;0.10;100.00;100939.38;1748654;80;21037;-75
2020/12/02 12:25:13;;;;;;;25.83;16.43;;;;;;;0.11;100.00;100945.33;1747143;80;21120;-75
2020/12/02 12:27:43;;;;;;;28.93;20.87;;;;;;;0.12;100.00;100940.70;1726980;80;22161;-75
2020/12/02 12:30:10;;;;;;;28.37;19.13;;;;;;;0.20;100.00;100946.99;1733363;80;21541;-75
2020/12/02 12:33:07;;;;;;;32.73;22.40;;;;;;;0.24;100.00;100950.13;1742331;80;21401;-74
2020/12/02 12:35:40;;;;;;;27.77;18.13;;;;;;;0.20;100.00;100945.72;1715255;82;21127;-73